Fayetteville, Indiana
Current Conditions -  °F | °C
As of 8:42 AM on Thursday 23 Oct 2014 (Local Time) from KBMG Reporting Station
Haze Haze  
Wind Chill: 34°   Ceiling: 100
Heat Index: 34°   Visibility: 3mi
Dew Point: 33°   Wind: 3mph
Humidity: 96%   Direction: 160°SSE
Pressure: 30.24"   Gusts: NA
Location:  38.8737°N, 86.4563°W
Report Text: KBMG 231242Z 16003KT 3SM BR BKN001 01/01 A3024 RMK AO2 I1001 T00110006
Loading
Personal Weather Stations






























Interactive Weather Map
Tropical Storm Tracking
New forecast layout! Learn more

10-Day Weather Forecast

Advertisements
Track Severe Weather on mobile